Atkinson, New Hampshire
Current Conditions -  °F | °C
As of 8:54 AM on Thursday 23 Oct 2014 (Local Time) from KLWM Reporting Station
Heavy Rain Heavy Rain  
Wind Chill: 10°   Ceiling: 800
Heat Index: 10°   Visibility: 1.7mi
Dew Point:   Wind: 6mph
Humidity: 93%   Direction: 340°NNW
Pressure: 29.73"   Gusts: NA
Location:  42.84°N, 71.15°W
Report Text: KLWM 231254Z 34005KT 1 3/4SM +RA BR BKN008 OVC013 10/09 A2973 RMK AO2 LTG DSNT NE SLP069 P0040 T01000089
Loading
Personal Weather Stations






























Interactive Weather Map
Tropical Storm Tracking
New forecast layout! Learn more

10-Day Weather Forecast

Advertisements
Track Severe Weather on mobile